Time;durP1;ratioP1;P1;durP2;ratioP2;P2;SDS_P1;SDS_P2;PMS_P1;PMS_P2;Temp;Humidity;BMP_temperature;BMP_pressure;BME280_temperature;BME280_humidity;BME280_pressure;Samples;Min_cycle;Max_cycle;Signal;HPM_P1;HPM_P2
2024/02/28 00:00:38;;;;;;;33.83;19.90;;;4.60;99.90;;;;;;7278236;19;20208;-76
2024/02/28 00:03:04;;;;;;;38.33;20.33;;;4.40;99.90;;;;;;7300264;19;20173;-76
2024/02/28 00:05:31;;;;;;;34.03;20.00;;;4.10;99.90;;;;;;7278941;19;20190;-76
2024/02/28 00:07:56;;;;;;;36.73;20.53;;;4.10;99.90;;;;;;7277350;19;20193;-76
2024/02/28 00:10:22;;;;;;;37.67;20.00;;;4.10;99.90;;;;;;7277446;19;20197;-77
2024/02/28 00:12:47;;;;;;;37.77;20.23;;;4.20;99.90;;;;;;7277821;19;20199;-78
2024/02/28 00:15:13;;;;;;;36.00;19.20;;;4.30;99.90;;;;;;7277499;19;20189;-76
2024/02/28 00:17:43;;;;;;;34.77;19.37;;;4.40;99.90;;;;;;7278372;19;20190;-75
2024/02/28 00:20:09;;;;;;;35.43;20.53;;;4.40;99.90;;;;;;7278024;19;20213;-76
2024/02/28 00:22:36;;;;;;;37.23;19.63;;;4.40;99.90;;;;;;7299342;19;20203;-76
2024/02/28 00:25:03;;;;;;;36.70;20.57;;;4.10;99.90;;;;;;7283821;19;20190;-77
2024/02/28 00:27:28;;;;;;;35.70;18.37;;;3.90;99.90;;;;;;7283762;19;20196;-75
2024/02/28 00:29:54;;;;;;;36.63;20.33;;;3.80;99.90;;;;;;7285576;19;20286;-76
2024/02/28 00:32:20;;;;;;;37.53;20.07;;;3.70;99.90;;;;;;7284544;19;20628;-76
2024/02/28 00:34:46;;;;;;;39.80;20.50;;;3.60;99.90;;;;;;7285194;19;20714;-76
2024/02/28 00:37:12;;;;;;;34.47;19.90;;;3.70;99.90;;;;;;7284118;19;20217;-75
2024/02/28 00:39:37;;;;;;;35.23;20.03;;;3.80;99.90;;;;;;7286660;19;20191;-76
2024/02/28 00:42:03;;;;;;;36.17;20.47;;;3.80;99.90;;;;;;7305628;19;20227;-76
2024/02/28 00:44:29;;;;;;;37.37;19.93;;;3.90;99.90;;;;;;7284749;19;20181;-76
2024/02/28 00:46:54;;;;;;;38.20;19.70;;;4.00;99.90;;;;;;7285424;19;20200;-76
2024/02/28 00:49:20;;;;;;;38.43;19.83;;;4.00;99.90;;;;;;7283132;19;20252;-76
2024/02/28 00:51:46;;;;;;;39.33;20.13;;;4.00;99.90;;;;;;7284799;19;20319;-76
2024/02/28 00:54:12;;;;;;;37.33;20.07;;;4.00;99.90;;;;;;7284883;19;20217;-76
2024/02/28 00:56:38;;;;;;;36.97;19.73;;;4.10;99.90;;;;;;7282371;19;20199;-75
2024/02/28 00:59:03;;;;;;;35.13;19.60;;;4.10;99.90;;;;;;7307907;19;20200;-76
2024/02/28 01:01:29;;;;;;;37.30;20.63;;;4.20;99.90;;;;;;7285075;19;20681;-76
2024/02/28 01:03:55;;;;;;;34.40;19.87;;;4.20;99.90;;;;;;7282815;19;20186;-76
2024/02/28 01:06:20;;;;;;;36.10;19.73;;;4.00;99.90;;;;;;7285251;19;20191;-76
2024/02/28 01:08:46;;;;;;;34.60;19.77;;;4.00;99.90;;;;;;7284932;19;20182;-76
2024/02/28 01:11:12;;;;;;;34.90;18.40;;;3.90;99.90;;;;;;7284569;19;20220;-76
2024/02/28 01:13:38;;;;;;;34.87;19.37;;;3.70;99.90;;;;;;7288343;19;20198;-75
2024/02/28 01:16:03;;;;;;;37.47;19.63;;;3.60;99.90;;;;;;7306674;19;20181;-76
2024/02/28 01:18:30;;;;;;;36.97;20.20;;;3.60;99.90;;;;;;7284405;19;20211;-76
2024/02/28 01:20:56;;;;;;;39.20;20.50;;;3.60;99.90;;;;;;7283038;19;20203;-76
2024/02/28 01:23:22;;;;;;;37.90;20.43;;;3.50;99.90;;;;;;7282012;19;20705;-76
2024/02/28 01:25:48;;;;;;;35.83;20.53;;;3.50;99.90;;;;;;7283580;19;20254;-76
2024/02/28 01:28:14;;;;;;;36.03;20.53;;;3.50;99.90;;;;;;7282682;19;20271;-76
2024/02/28 01:30:39;;;;;;;38.07;20.73;;;3.60;99.90;;;;;;7282267;19;20557;-76
2024/02/28 01:33:05;;;;;;;40.87;20.40;;;3.60;99.90;;;;;;7303923;19;20190;-76
2024/02/28 01:35:31;;;;;;;41.23;21.70;;;3.50;99.90;;;;;;7282682;19;20189;-76
2024/02/28 01:37:56;;;;;;;37.13;21.13;;;3.50;99.90;;;;;;7283257;19;20178;-75
2024/02/28 01:40:22;;;;;;;41.17;21.20;;;3.50;99.90;;;;;;7281880;19;20230;-76
2024/02/28 01:42:48;;;;;;;37.03;20.97;;;3.40;99.90;;;;;;7280846;19;20196;-75
2024/02/28 01:45:14;;;;;;;38.97;20.93;;;3.30;99.90;;;;;;7280826;19;20191;-75
2024/02/28 01:47:41;;;;;;;45.70;23.13;;;3.40;99.90;;;;;;7282710;19;20191;-75
2024/02/28 01:50:09;;;;;;;40.37;20.73;;;3.50;99.90;;;;;;7288939;19;20199;-75
2024/02/28 01:52:36;;;;;;;39.03;19.50;;;3.60;99.90;;;;;;7304610;19;20207;-75
2024/02/28 01:55:02;;;;;;;39.80;20.13;;;3.60;99.90;;;;;;7282757;19;20254;-75
2024/02/28 01:57:28;;;;;;;37.23;20.27;;;3.70;99.90;;;;;;7282944;19;20602;-76
2024/02/28 01:59:55;;;;;;;37.90;19.40;;;3.70;99.90;;;;;;7281438;19;20222;-76
2024/02/28 02:02:21;;;;;;;38.40;21.47;;;3.60;99.90;;;;;;7281862;19;20550;-76
2024/02/28 02:04:47;;;;;;;39.67;19.97;;;3.40;99.90;;;;;;7281452;19;20199;-75
2024/02/28 02:07:13;;;;;;;37.27;18.37;;;3.20;99.90;;;;;;7281694;19;20198;-75
2024/02/28 02:09:39;;;;;;;36.50;19.07;;;3.20;99.90;;;;;;7280249;19;20246;-75
2024/02/28 02:12:05;;;;;;;34.67;20.20;;;3.00;99.90;;;;;;7303577;19;20189;-75
2024/02/28 02:14:30;;;;;;;34.10;19.93;;;3.00;99.90;;;;;;7281886;19;20253;-76
2024/02/28 02:16:56;;;;;;;44.20;21.13;;;3.10;99.90;;;;;;7282253;19;20209;-75
2024/02/28 02:19:22;;;;;;;36.50;19.40;;;3.20;99.90;;;;;;7281572;19;20275;-76
2024/02/28 02:21:54;;;;;;;37.17;19.43;;;3.10;99.90;;;;;;7280835;19;20841;-76
2024/02/28 02:24:20;;;;;;;38.03;19.47;;;3.00;99.90;;;;;;7282323;19;20192;-75
2024/02/28 02:26:46;;;;;;;34.27;18.47;;;3.00;99.90;;;;;;7281210;19;20193;-75
2024/02/28 02:29:13;;;;;;;36.37;19.47;;;3.00;99.90;;;;;;7280815;19;20202;-75
2024/02/28 02:31:38;;;;;;;38.00;19.10;;;3.00;99.90;;;;;;7281863;19;20197;-76
2024/02/28 02:34:04;;;;;;;36.63;18.97;;;3.10;99.90;;;;;;7304096;19;20189;-75
2024/02/28 02:36:30;;;;;;;37.37;19.50;;;3.20;99.90;;;;;;7281216;19;20179;-75
2024/02/28 02:38:55;;;;;;;35.00;18.20;;;3.20;99.90;;;;;;7282557;19;20204;-74
2024/02/28 02:41:21;;;;;;;35.40;18.83;;;3.30;99.90;;;;;;7280636;19;20191;-75
2024/02/28 02:43:47;;;;;;;34.87;18.37;;;3.40;99.90;;;;;;7280120;19;20596;-75
2024/02/28 02:46:12;;;;;;;36.13;18.17;;;3.60;99.90;;;;;;7280840;19;20195;-75
2024/02/28 02:48:38;;;;;;;34.40;17.47;;;3.60;99.90;;;;;;7278063;19;20186;-75
2024/02/28 02:51:04;;;;;;;33.03;17.60;;;3.60;99.90;;;;;;7301370;19;20181;-75
2024/02/28 02:53:30;;;;;;;31.03;16.97;;;3.40;99.90;;;;;;7280054;19;20196;-76
2024/02/28 02:55:55;;;;;;;33.73;17.63;;;3.30;99.90;;;;;;7280451;19;20196;-75
2024/02/28 02:58:21;;;;;;;36.10;18.67;;;3.30;99.90;;;;;;7279879;19;20197;-75
2024/02/28 03:00:47;;;;;;;40.07;18.63;;;3.20;99.90;;;;;;7279718;19;20191;-75
2024/02/28 03:03:13;;;;;;;37.97;18.53;;;3.20;99.90;;;;;;7280029;19;20558;-76
2024/02/28 03:05:38;;;;;;;37.83;18.47;;;3.30;99.90;;;;;;7279288;19;20191;-75
2024/02/28 03:08:04;;;;;;;38.63;18.30;;;3.30;99.90;;;;;;7303634;19;20632;-75
2024/02/28 03:10:30;;;;;;;35.07;18.90;;;3.20;99.90;;;;;;7278912;19;20207;-75
2024/02/28 03:12:55;;;;;;;41.37;18.80;;;3.10;99.90;;;;;;7278311;19;20199;-75
2024/02/28 03:15:21;;;;;;;39.00;19.70;;;3.10;99.90;;;;;;7280650;19;20205;-78
2024/02/28 03:17:47;;;;;;;40.30;18.93;;;3.00;99.90;;;;;;7284181;19;20242;-77
2024/02/28 03:20:15;;;;;;;39.57;19.63;;;3.10;99.90;;;;;;7284111;19;20190;-78
2024/02/28 03:22:41;;;;;;;36.03;19.30;;;3.30;99.90;;;;;;7282838;19;20198;-77
2024/02/28 03:25:07;;;;;;;35.77;19.73;;;3.40;99.90;;;;;;7301702;19;20187;-77
2024/02/28 03:27:35;;;;;;;37.53;19.60;;;3.40;99.90;;;;;;7303475;19;20232;-78
2024/02/28 03:30:01;;;;;;;33.93;18.93;;;3.30;99.90;;;;;;7283837;19;20188;-78
2024/02/28 03:32:27;;;;;;;36.30;20.30;;;3.20;99.90;;;;;;7285289;19;20199;-77
2024/02/28 03:34:53;;;;;;;35.00;19.13;;;3.10;99.90;;;;;;7284033;19;20640;-77
2024/02/28 03:37:18;;;;;;;38.27;19.73;;;3.10;99.90;;;;;;7284972;19;20188;-78
2024/02/28 03:39:44;;;;;;;40.00;19.80;;;2.90;99.90;;;;;;7284454;19;20202;-77
2024/02/28 03:42:09;;;;;;;37.17;18.73;;;2.90;99.90;;;;;;7282995;19;20641;-77
2024/02/28 03:44:35;;;;;;;38.17;19.37;;;2.90;99.90;;;;;;7306554;19;20190;-77
2024/02/28 03:47:01;;;;;;;36.67;18.73;;;2.90;99.90;;;;;;7283645;19;20183;-78
2024/02/28 03:49:27;;;;;;;37.13;18.70;;;2.80;99.90;;;;;;7282905;19;20224;-78
2024/02/28 03:51:52;;;;;;;37.53;18.90;;;2.90;99.90;;;;;;7282684;19;20219;-78
2024/02/28 03:54:18;;;;;;;41.60;20.07;;;2.80;99.90;;;;;;7282447;19;20201;-77
2024/02/28 03:56:44;;;;;;;38.20;18.50;;;2.90;99.90;;;;;;7283199;19;20294;-77
2024/02/28 03:59:09;;;;;;;42.70;20.13;;;2.90;99.90;;;;;;7281988;19;20280;-77
2024/02/28 04:01:35;;;;;;;34.17;19.33;;;2.90;99.90;;;;;;7304432;19;20190;-77
2024/02/28 04:04:02;;;;;;;35.23;19.00;;;2.90;99.90;;;;;;7282102;19;20191;-78
2024/02/28 04:06:27;;;;;;;38.27;20.07;;;2.90;99.90;;;;;;7282561;19;20221;-77
2024/02/28 04:08:53;;;;;;;39.30;20.37;;;2.80;99.90;;;;;;7282961;19;20190;-77
2024/02/28 04:11:19;;;;;;;35.40;19.47;;;2.80;99.90;;;;;;7281205;19;20648;-78
2024/02/28 04:13:45;;;;;;;35.07;18.67;;;2.80;99.90;;;;;;7283602;19;20530;-78
2024/02/28 04:16:11;;;;;;;34.77;19.40;;;2.80;99.90;;;;;;7283231;19;20191;-78
2024/02/28 04:18:37;;;;;;;40.13;19.43;;;2.80;99.90;;;;;;7304000;19;20222;-75
2024/02/28 04:21:03;;;;;;;38.10;18.60;;;2.80;99.90;;;;;;7293909;19;20536;-78
2024/02/28 04:23:28;;;;;;;38.97;19.87;;;2.80;99.90;;;;;;7283649;19;20200;-78
2024/02/28 04:25:54;;;;;;;40.73;19.83;;;2.90;99.90;;;;;;7282449;19;20194;-78
2024/02/28 04:28:20;;;;;;;36.13;19.20;;;2.80;99.90;;;;;;7281442;19;20199;-78
2024/02/28 04:30:45;;;;;;;37.20;19.87;;;2.80;99.90;;;;;;7281172;19;20192;-78
2024/02/28 04:33:11;;;;;;;38.87;19.63;;;2.80;99.90;;;;;;7279747;19;20196;-77
2024/02/28 04:35:37;;;;;;;38.83;19.97;;;2.90;99.90;;;;;;7299738;19;20178;-76
2024/02/28 04:38:03;;;;;;;37.80;19.90;;;2.90;99.90;;;;;;7292395;19;20214;-77
2024/02/28 04:40:28;;;;;;;38.00;19.53;;;2.90;99.90;;;;;;7281503;19;20193;-77
2024/02/28 04:42:54;;;;;;;37.73;19.93;;;2.90;99.90;;;;;;7281519;19;20608;-78
2024/02/28 04:45:20;;;;;;;38.67;18.97;;;2.80;99.90;;;;;;7282366;19;20211;-77
2024/02/28 04:47:45;;;;;;;40.77;19.40;;;2.90;99.90;;;;;;7281093;19;20198;-78
2024/02/28 04:50:12;;;;;;;42.10;20.57;;;2.90;99.90;;;;;;7281925;19;20179;-77
2024/02/28 04:52:37;;;;;;;40.20;20.47;;;3.10;99.90;;;;;;7290407;19;20178;-76
2024/02/28 04:55:04;;;;;;;41.93;21.47;;;3.30;99.90;;;;;;7301555;19;20195;-78
2024/02/28 04:57:29;;;;;;;42.97;21.23;;;3.50;99.90;;;;;;7282602;19;20198;-78
2024/02/28 04:59:55;;;;;;;44.43;22.60;;;3.60;99.90;;;;;;7281287;19;20544;-78
2024/02/28 05:02:25;;;;;;;37.80;20.33;;;3.70;99.90;;;;;;7281496;19;20218;-77
2024/02/28 05:04:51;;;;;;;41.60;20.67;;;3.70;99.90;;;;;;7281163;19;20186;-77
2024/02/28 05:07:17;;;;;;;39.47;20.43;;;3.80;99.90;;;;;;7280651;19;20202;-78
2024/02/28 05:09:43;;;;;;;41.30;20.93;;;3.90;99.90;;;;;;7279931;19;20208;-77
2024/02/28 05:12:08;;;;;;;39.60;21.67;;;4.00;99.90;;;;;;7289507;19;20177;-77
2024/02/28 05:14:34;;;;;;;40.20;21.23;;;4.10;99.90;;;;;;7310051;19;20646;-77
2024/02/28 05:17:00;;;;;;;38.30;20.43;;;4.10;99.90;;;;;;7287590;19;20208;-78
2024/02/28 05:19:26;;;;;;;41.13;21.40;;;4.20;99.90;;;;;;7288738;19;20184;-77
2024/02/28 05:21:51;;;;;;;42.83;22.47;;;4.30;99.90;;;;;;7286489;19;20195;-77
2024/02/28 05:24:17;;;;;;;44.87;23.13;;;4.40;99.90;;;;;;7286207;19;20197;-78
2024/02/28 05:26:43;;;;;;;46.60;23.23;;;4.60;99.90;;;;;;7286628;19;20188;-78
2024/02/28 05:29:09;;;;;;;41.20;23.47;;;4.70;99.90;;;;;;7285977;19;20196;-77
2024/02/28 05:31:36;;;;;;;42.13;23.10;;;4.80;99.90;;;;;;7309203;19;20189;-78
2024/02/28 05:34:02;;;;;;;44.93;23.17;;;4.90;99.90;;;;;;7286621;19;20197;-78
2024/02/28 05:36:29;;;;;;;42.90;24.07;;;5.00;99.90;;;;;;7285348;19;20219;-78
2024/02/28 05:38:57;;;;;;;47.07;23.60;;;5.10;99.90;;;;;;7287204;19;20256;-78
2024/02/28 05:41:23;;;;;;;44.10;21.87;;;5.10;99.90;;;;;;7287121;19;20712;-78
2024/02/28 05:43:49;;;;;;;43.50;22.83;;;5.00;99.90;;;;;;7286264;19;20191;-77
2024/02/28 05:46:16;;;;;;;48.17;23.27;;;5.10;99.90;;;;;;7286715;19;20193;-78
2024/02/28 05:48:43;;;;;;;40.50;22.33;;;5.20;99.90;;;;;;7286572;19;20656;-78
2024/02/28 05:51:10;;;;;;;44.40;22.53;;;5.30;99.90;;;;;;7286802;19;20273;-77
2024/02/28 05:53:35;;;;;;;43.37;22.53;;;5.40;99.90;;;;;;7310111;19;20199;-77
2024/02/28 05:56:13;;;;;;;46.47;23.40;;;5.50;99.90;;;;;;7286796;19;20311;-77
2024/02/28 05:58:39;;;;;;;45.03;22.40;;;5.20;99.90;;;;;;7269726;19;20775;-77
2024/02/28 06:01:05;;;;;;;43.63;20.67;;;5.00;99.90;;;;;;7309472;19;20210;-76
2024/02/28 06:03:30;;;;;;;42.80;22.03;;;4.90;99.90;;;;;;7287380;19;20188;-76
2024/02/28 06:05:57;;;;;;;39.30;21.40;;;4.90;99.90;;;;;;7286241;19;20196;-77
2024/02/28 06:08:23;;;;;;;44.67;20.10;;;4.70;99.90;;;;;;7286710;19;20272;-78
2024/02/28 06:10:49;;;;;;;46.37;20.83;;;4.70;99.90;;;;;;7285090;19;20318;-77
2024/02/28 06:13:15;;;;;;;35.90;20.30;;;4.60;99.90;;;;;;7284049;19;20204;-77
2024/02/28 06:15:40;;;;;;;39.87;20.83;;;4.50;99.90;;;;;;7280870;19;20195;-77
2024/02/28 06:18:06;;;;;;;36.50;20.30;;;4.60;99.90;;;;;;7304207;19;20192;-78
2024/02/28 06:20:32;;;;;;;40.10;19.70;;;4.70;99.90;;;;;;7282774;19;20671;-78
2024/02/28 06:22:57;;;;;;;37.50;19.83;;;4.90;99.90;;;;;;7280387;19;20593;-78
2024/02/28 06:25:24;;;;;;;44.80;22.33;;;5.00;99.90;;;;;;7280221;19;20648;-78
2024/02/28 06:27:49;;;;;;;42.43;20.33;;;5.00;99.90;;;;;;7282151;19;20215;-77
2024/02/28 06:30:16;;;;;;;39.53;20.33;;;5.20;99.90;;;;;;7281624;19;20239;-78
2024/02/28 06:32:42;;;;;;;39.77;19.43;;;5.20;99.90;;;;;;7281173;19;20232;-76
2024/02/28 06:35:08;;;;;;;43.93;21.10;;;5.40;99.90;;;;;;7287129;19;20192;-76
2024/02/28 06:37:34;;;;;;;41.23;21.47;;;5.30;99.90;;;;;;7301871;19;20198;-77
2024/02/28 06:40:00;;;;;;;43.63;21.37;;;5.50;99.90;;;;;;7279061;19;20552;-77
2024/02/28 06:42:26;;;;;;;41.43;20.97;;;5.60;99.90;;;;;;7279853;19;20728;-77
2024/02/28 06:44:52;;;;;;;37.23;20.10;;;5.50;99.90;;;;;;7279525;19;20261;-77
2024/02/28 06:47:20;;;;;;;44.53;19.33;;;5.40;99.90;;;;;;7280406;19;20186;-77
2024/02/28 06:49:46;;;;;;;40.13;19.10;;;5.20;99.90;;;;;;7280273;19;20201;-78
2024/02/28 06:52:12;;;;;;;40.13;19.20;;;5.30;99.90;;;;;;7281241;19;20191;-77
2024/02/28 06:54:37;;;;;;;32.93;18.50;;;5.30;99.90;;;;;;7292080;19;20194;-76
2024/02/28 06:57:03;;;;;;;37.30;19.23;;;5.40;99.90;;;;;;7297299;19;20509;-77
2024/02/28 06:59:29;;;;;;;35.10;18.97;;;5.50;99.90;;;;;;7278733;19;20193;-77
2024/02/28 07:01:55;;;;;;;39.33;19.27;;;5.70;99.90;;;;;;7279425;19;20189;-77
2024/02/28 07:04:21;;;;;;;42.63;20.33;;;5.70;99.90;;;;;;7277778;19;20245;-76
2024/02/28 07:06:46;;;;;;;37.20;18.67;;;5.70;99.90;;;;;;7280885;19;20652;-75
2024/02/28 07:09:12;;;;;;;40.90;20.03;;;5.80;99.90;;;;;;7280090;19;20196;-78
2024/02/28 07:11:38;;;;;;;37.03;18.93;;;5.80;99.90;;;;;;7290367;19;20214;-75
2024/02/28 07:14:04;;;;;;;41.00;20.20;;;5.70;99.90;;;;;;7300450;19;20302;-76
2024/02/28 07:16:33;;;;;;;38.20;18.43;;;5.70;99.90;;;;;;7277284;19;20196;-77
2024/02/28 07:19:00;;;;;;;38.53;18.87;;;5.80;99.90;;;;;;7277632;19;20188;-77
2024/02/28 07:21:26;;;;;;;40.97;19.10;;;6.10;99.90;;;;;;7280541;19;20219;-77
2024/02/28 07:23:51;;;;;;;42.93;19.70;;;6.30;99.90;;;;;;7278430;19;20686;-77
2024/02/28 07:26:17;;;;;;;41.03;19.47;;;6.40;99.90;;;;;;7278358;19;20196;-78
2024/02/28 07:28:49;;;;;;;43.53;19.50;;;6.30;99.90;;;;;;7278908;19;20356;-77
2024/02/28 07:31:18;;;;;;;37.90;19.07;;;6.30;99.90;;;;;;7279357;19;20652;-78
2024/02/28 07:33:44;;;;;;;36.17;18.43;;;6.40;99.90;;;;;;7277244;19;20246;-77
2024/02/28 07:36:10;;;;;;;34.37;17.87;;;6.70;99.90;;;;;;7277706;19;20212;-77
2024/02/28 07:38:36;;;;;;;54.37;23.83;;;7.00;99.90;;;;;;7300504;19;20183;-78
2024/02/28 07:41:02;;;;;;;43.27;22.50;;;7.10;99.90;;;;;;7279451;19;20537;-77
2024/02/28 07:43:32;;;;;;;40.80;21.97;;;7.40;99.90;;;;;;7280041;19;20191;-77
2024/02/28 07:45:58;;;;;;;35.70;18.97;;;7.30;99.90;;;;;;7278656;19;20186;-77
2024/02/28 07:48:24;;;;;;;32.87;17.90;;;7.40;99.90;;;;;;7278091;19;20212;-77
2024/02/28 07:50:50;;;;;;;32.93;16.60;;;7.50;99.90;;;;;;7277450;19;20186;-77
2024/02/28 07:53:17;;;;;;;33.63;17.17;;;7.60;99.90;;;;;;7278483;19;20222;-78
2024/02/28 07:55:43;;;;;;;35.93;18.00;;;7.80;99.90;;;;;;7280135;19;20209;-77
2024/02/28 07:58:09;;;;;;;37.77;16.63;;;7.90;99.90;;;;;;7281425;19;20652;-78
2024/02/28 08:00:35;;;;;;;32.63;16.23;;;7.70;99.90;;;;;;7301626;19;20360;-78
2024/02/28 08:03:01;;;;;;;33.73;18.57;;;7.70;99.90;;;;;;7278186;19;20185;-78
2024/02/28 08:05:27;;;;;;;34.33;17.57;;;7.80;99.90;;;;;;7277353;19;20199;-77
2024/02/28 08:07:53;;;;;;;40.37;18.73;;;7.90;99.90;;;;;;7279544;19;20579;-78
2024/02/28 08:10:18;;;;;;;41.07;19.43;;;7.90;99.90;;;;;;7278849;19;20188;-77
2024/02/28 08:12:44;;;;;;;38.53;19.50;;;7.90;99.90;;;;;;7275886;19;20218;-78
2024/02/28 08:15:10;;;;;;;37.37;18.30;;;8.00;99.90;;;;;;7278520;19;20775;-77
2024/02/28 08:17:36;;;;;;;33.13;14.50;;;8.20;99.90;;;;;;7298981;19;20546;-77
2024/02/28 08:20:04;;;;;;;31.93;14.60;;;8.40;99.90;;;;;;7278800;19;20299;-77
2024/02/28 08:22:31;;;;;;;34.80;15.40;;;8.50;99.90;;;;;;7277852;19;20743;-77
2024/02/28 08:24:57;;;;;;;33.47;14.93;;;8.40;99.90;;;;;;7276255;19;20192;-78
2024/02/28 08:27:23;;;;;;;36.70;15.83;;;8.40;99.90;;;;;;7277487;19;20192;-77
2024/02/28 08:29:49;;;;;;;30.30;15.20;;;8.50;99.90;;;;;;7276038;19;20197;-77
2024/02/28 08:32:16;;;;;;;31.40;15.00;;;8.50;99.90;;;;;;7276466;19;20659;-77
2024/02/28 08:34:49;;;;;;;37.53;16.43;;;8.20;99.90;;;;;;7277093;19;20199;-77
2024/02/28 08:37:15;;;;;;;29.67;14.87;;;8.10;99.90;;;;;;7275803;19;20184;-77
2024/02/28 08:39:43;;;;;;;32.67;14.97;;;8.00;99.90;;;;;;7275047;19;20616;-77
2024/02/28 08:42:09;;;;;;;33.00;14.50;;;7.90;99.90;;;;;;7277974;19;20187;-77
2024/02/28 08:44:34;;;;;;;30.60;13.33;;;8.00;99.90;;;;;;7302381;19;20181;-77
2024/02/28 08:47:00;;;;;;;33.70;14.43;;;8.00;99.90;;;;;;7285892;19;20192;-77
2024/02/28 08:49:26;;;;;;;32.90;15.20;;;8.00;99.90;;;;;;7283668;19;20210;-78
2024/02/28 08:51:52;;;;;;;39.83;14.77;;;8.20;99.90;;;;;;7283567;19;20530;-78
2024/02/28 08:54:17;;;;;;;28.83;13.60;;;8.40;99.90;;;;;;7284023;19;20551;-77
2024/02/28 08:56:43;;;;;;;31.57;14.00;;;8.60;99.90;;;;;;7283227;19;20261;-77
2024/02/28 08:59:09;;;;;;;29.50;12.67;;;8.60;99.90;;;;;;7284238;19;20188;-77
2024/02/28 09:01:35;;;;;;;29.70;12.63;;;8.70;99.90;;;;;;7306273;19;20213;-77
2024/02/28 09:04:01;;;;;;;30.53;13.43;;;8.70;99.90;;;;;;7283571;19;20313;-78
2024/02/28 09:06:27;;;;;;;28.93;13.77;;;9.00;99.90;;;;;;7283305;19;20206;-78
2024/02/28 09:08:53;;;;;;;28.27;13.07;;;8.90;99.90;;;;;;7284891;19;20195;-78
2024/02/28 09:11:18;;;;;;;27.00;12.40;;;9.40;99.90;;;;;;7281976;19;20191;-78
2024/02/28 09:13:44;;;;;;;27.60;12.73;;;9.60;99.90;;;;;;7284181;19;20190;-77
2024/02/28 09:16:10;;;;;;;27.77;13.57;;;9.70;99.90;;;;;;7283632;19;20582;-77
2024/02/28 09:18:35;;;;;;;31.50;14.37;;;9.80;99.90;;;;;;7304975;19;20182;-77
2024/02/28 09:21:01;;;;;;;29.93;13.80;;;9.80;99.90;;;;;;7284097;19;20186;-78
2024/02/28 09:23:27;;;;;;;29.70;14.13;;;9.80;99.90;;;;;;7282976;19;20209;-77
2024/02/28 09:25:53;;;;;;;29.67;14.13;;;9.80;99.90;;;;;;7281403;19;20195;-77
2024/02/28 09:28:19;;;;;;;31.73;13.13;;;9.60;99.90;;;;;;7283792;19;20203;-78
2024/02/28 09:30:47;;;;;;;29.47;13.67;;;9.70;99.90;;;;;;7281568;19;20254;-77
2024/02/28 09:33:13;;;;;;;28.23;12.40;;;9.90;99.90;;;;;;7282371;19;20191;-77
2024/02/28 09:35:39;;;;;;;30.37;12.73;;;9.90;99.90;;;;;;7287080;19;20341;-77
2024/02/28 09:38:04;;;;;;;31.57;12.77;;;9.90;99.90;;;;;;7304421;19;20231;-77
2024/02/28 09:40:30;;;;;;;22.03;11.57;;;9.80;99.90;;;;;;7281781;19;20188;-78
2024/02/28 09:43:03;;;;;;;27.00;12.70;;;9.70;99.90;;;;;;7282771;19;20555;-78
2024/02/28 09:45:30;;;;;;;27.23;12.00;;;9.70;99.90;;;;;;7280129;19;20184;-78
2024/02/28 09:48:00;;;;;;;25.00;12.37;;;9.60;99.90;;;;;;7282484;19;20191;-78
2024/02/28 09:50:26;;;;;;;29.73;13.13;;;9.80;99.90;;;;;;7281697;19;20188;-77
2024/02/28 09:52:53;;;;;;;25.87;13.37;;;9.90;99.90;;;;;;7281907;19;20195;-78
2024/02/28 09:55:19;;;;;;;25.83;13.07;;;10.00;99.90;;;;;;7282437;19;20185;-77
2024/02/28 09:57:48;;;;;;;31.23;15.13;;;10.10;99.90;;;;;;7277764;19;20194;-77
2024/02/28 10:00:15;;;;;;;30.10;15.33;;;10.20;99.90;;;;;;7281837;19;20191;-77
2024/02/28 10:02:44;;;;;;;29.00;14.87;;;10.40;99.90;;;;;;7282739;19;20576;-77
2024/02/28 10:05:10;;;;;;;31.47;14.57;;;10.30;99.90;;;;;;7282230;19;20185;-77
2024/02/28 10:07:36;;;;;;;29.30;15.00;;;10.40;99.90;;;;;;7304672;19;20181;-77
2024/02/28 10:10:03;;;;;;;31.67;14.43;;;10.60;99.90;;;;;;7281301;19;20196;-77
2024/02/28 10:12:29;;;;;;;27.70;14.27;;;10.90;99.90;;;;;;7281994;19;20875;-77
2024/02/28 10:14:55;;;;;;;25.90;13.73;;;11.00;99.90;;;;;;7281885;19;20298;-77
2024/02/28 10:17:21;;;;;;;26.40;13.30;;;11.00;99.90;;;;;;7281083;19;20641;-77
2024/02/28 10:19:47;;;;;;;25.13;12.10;;;10.70;99.90;;;;;;7278597;19;20200;-77
2024/02/28 10:22:13;;;;;;;25.20;12.77;;;10.40;99.90;;;;;;7281087;19;20198;-78
2024/02/28 10:24:38;;;;;;;24.93;12.53;;;10.50;99.90;;;;;;7289285;19;20591;-77
2024/02/28 10:27:05;;;;;;;25.43;12.80;;;10.80;99.90;;;;;;7302407;19;20260;-77
2024/02/28 10:29:33;;;;;;;21.63;11.77;;;11.20;99.90;;;;;;7281417;19;20324;-77
2024/02/28 10:32:00;;;;;;;18.97;11.00;;;11.50;99.90;;;;;;7281295;19;20254;-77
2024/02/28 10:34:25;;;;;;;20.00;10.00;;;11.90;99.90;;;;;;7280738;19;20264;-77
2024/02/28 10:36:51;;;;;;;20.53;9.27;;;12.00;99.90;;;;;;7281263;19;20261;-78
2024/02/28 10:39:17;;;;;;;15.00;8.10;;;12.40;99.90;;;;;;7280867;19;20228;-77
2024/02/28 10:41:46;;;;;;;15.23;8.20;;;12.00;99.90;;;;;;7279404;19;20193;-77
2024/02/28 10:44:13;;;;;;;16.10;8.00;;;12.20;99.90;;;;;;7280619;19;20264;-77
2024/02/28 10:46:39;;;;;;;18.93;8.23;;;12.40;99.90;;;;;;7289053;19;20201;-76
2024/02/28 10:49:09;;;;;;;20.83;9.00;;;12.60;99.90;;;;;;7302201;19;20213;-77
2024/02/28 10:51:39;;;;;;;19.53;7.87;;;12.80;99.90;;;;;;7279957;19;20202;-77
2024/02/28 10:54:12;;;;;;;15.47;7.43;;;13.00;99.90;;;;;;7281437;19;20709;-77
2024/02/28 10:56:42;;;;;;;14.03;7.20;;;13.20;99.90;;;;;;7274976;19;20191;-76
2024/02/28 10:59:12;;;;;;;13.67;6.50;;;12.90;99.90;;;;;;7299162;19;20667;-76
2024/02/28 11:01:43;;;;;;;12.40;5.97;;;13.00;99.90;;;;;;7295314;19;20201;-77
2024/02/28 11:04:13;;;;;;;14.07;6.83;;;13.30;99.90;;;;;;7280769;19;20221;-77
2024/02/28 11:06:54;;;;;;;15.67;7.00;;;13.40;99.90;;;;;;7285107;19;20198;-77
2024/02/28 11:09:25;;;;;;;12.07;6.17;;;13.30;99.90;;;;;;7280022;19;20306;-78
2024/02/28 11:11:51;;;;;;;11.83;6.17;;;13.10;99.90;;;;;;7279712;19;20199;-78
2024/02/28 11:14:21;;;;;;;13.03;6.00;;;12.60;99.90;;;;;;7280186;19;20617;-78
2024/02/28 11:16:47;;;;;;;13.30;5.73;;;12.60;99.90;;;;;;7280330;19;20730;-78
2024/02/28 11:19:23;;;;;;;14.63;6.37;;;13.00;99.90;;;;;;7278314;19;20202;-77
2024/02/28 11:21:56;;;;;;;15.33;6.93;;;13.30;99.90;;;;;;7280425;19;20198;-77
2024/02/28 11:24:33;;;;;;;16.30;7.23;;;13.00;99.90;;;;;;7279427;19;20202;-78
2024/02/28 11:26:59;;;;;;;19.27;7.50;;;12.70;99.90;;;;;;7281661;19;20187;-77
2024/02/28 11:29:27;;;;;;;15.63;7.07;;;12.60;99.90;;;;;;7279121;19;20202;-78
2024/02/28 11:31:53;;;;;;;16.00;7.20;;;12.70;99.90;;;;;;7279632;19;20191;-77
2024/02/28 11:34:20;;;;;;;16.70;7.40;;;13.10;99.90;;;;;;7279075;19;20189;-78
2024/02/28 11:36:49;;;;;;;15.23;7.87;;;13.20;99.90;;;;;;7280251;19;20691;-78
2024/02/28 11:39:15;;;;;;;12.83;6.67;;;13.30;99.90;;;;;;7279478;19;20195;-78
2024/02/28 11:41:42;;;;;;;14.30;7.20;;;13.30;99.90;;;;;;7280429;19;20194;-77
2024/02/28 11:44:08;;;;;;;13.53;6.60;;;13.40;99.90;;;;;;7295030;19;20796;-77
2024/02/28 11:46:33;;;;;;;13.50;6.63;;;13.40;99.90;;;;;;7292027;19;20199;-77
2024/02/28 11:49:01;;;;;;;16.93;7.17;;;13.30;99.90;;;;;;7277481;19;20205;-77
2024/02/28 11:51:27;;;;;;;19.90;7.57;;;13.50;99.90;;;;;;7276963;19;20182;-78
2024/02/28 11:53:52;;;;;;;15.50;7.37;;;13.40;99.90;;;;;;7280073;19;20645;-77
2024/02/28 11:56:21;;;;;;;15.43;7.37;;;13.20;99.90;;;;;;7278206;19;20194;-78
2024/02/28 11:58:51;;;;;;;14.20;6.80;;;12.90;99.90;;;;;;7277502;19;20184;-77
2024/02/28 12:01:16;;;;;;;13.50;6.60;;;12.90;99.90;;;;;;7278626;19;20248;-78
2024/02/28 12:03:46;;;;;;;17.13;6.97;;;13.00;99.90;;;;;;7277376;19;20187;-77
2024/02/28 12:06:12;;;;;;;14.03;6.00;;;13.20;99.90;;;;;;7278012;19;20202;-77
2024/02/28 12:08:38;;;;;;;16.43;6.77;;;13.30;99.90;;;;;;7294955;19;20183;-76
2024/02/28 12:11:08;;;;;;;16.50;6.10;;;13.30;99.90;;;;;;7290842;19;20192;-77
2024/02/28 12:13:34;;;;;;;11.23;5.70;;;13.40;99.90;;;;;;7278669;19;20194;-77
2024/02/28 12:16:01;;;;;;;13.93;6.27;;;13.40;99.90;;;;;;7277127;19;20201;-77
2024/02/28 12:18:28;;;;;;;12.87;6.20;;;13.40;99.90;;;;;;7276132;19;20202;-77
2024/02/28 12:20:54;;;;;;;14.53;5.73;;;13.70;99.90;;;;;;7282412;19;20195;-77
2024/02/28 12:23:19;;;;;;;11.97;5.23;;;13.70;99.90;;;;;;7285507;19;20589;-79
2024/02/28 12:25:46;;;;;;;12.93;6.27;;;13.80;99.90;;;;;;7283869;19;20197;-77
2024/02/28 12:28:13;;;;;;;13.43;6.37;;;14.00;99.90;;;;;;7285294;19;20218;-77
2024/02/28 12:30:44;;;;;;;13.50;6.13;;;14.10;99.90;;;;;;7296303;19;20186;-77